sensor_id;sensor_type;location;lat;lon;timestamp;pressure;altitude;pressure_sealevel;temperature;humidity
11114;BME280;5610;52.154;9.198;2024-02-23T00:01:19;97571.25;;;9.65;97.15
11114;BME280;5610;52.154;9.198;2024-02-23T00:04:04;97602.19;;;9.66;98.03
11114;BME280;5610;52.154;9.198;2024-02-23T00:06:52;97572.41;;;9.62;97.34
11114;BME280;5610;52.154;9.198;2024-02-23T00:09:37;97596.88;;;9.66;91.73
11114;BME280;5610;52.154;9.198;2024-02-23T00:12:22;97579.09;;;9.75;93.06
11114;BME280;5610;52.154;9.198;2024-02-23T00:15:08;97569.47;;;9.82;90.45
11114;BME280;5610;52.154;9.198;2024-02-23T00:17:55;97605.03;;;9.81;91.10
11114;BME280;5610;52.154;9.198;2024-02-23T00:20:41;97613.00;;;9.89;89.69
11114;BME280;5610;52.154;9.198;2024-02-23T00:23:26;97609.66;;;9.79;90.25
11114;BME280;5610;52.154;9.198;2024-02-23T00:26:12;97630.94;;;9.79;91.64
11114;BME280;5610;52.154;9.198;2024-02-23T00:28:58;97645.22;;;9.78;90.43
11114;BME280;5610;52.154;9.198;2024-02-23T00:31:43;97615.16;;;9.77;92.46
11114;BME280;5610;52.154;9.198;2024-02-23T00:34:30;97606.03;;;9.80;92.95
11114;BME280;5610;52.154;9.198;2024-02-23T00:37:16;97626.94;;;9.67;95.15
11114;BME280;5610;52.154;9.198;2024-02-23T00:40:01;97649.53;;;9.79;93.93
11114;BME280;5610;52.154;9.198;2024-02-23T00:42:47;97660.59;;;9.58;95.11
11114;BME280;5610;52.154;9.198;2024-02-23T00:45:32;97656.16;;;9.58;91.18
11114;BME280;5610;52.154;9.198;2024-02-23T00:48:17;97662.75;;;9.46;92.62
11114;BME280;5610;52.154;9.198;2024-02-23T00:51:04;97658.91;;;9.41;94.92
11114;BME280;5610;52.154;9.198;2024-02-23T00:53:49;97677.25;;;9.26;100.00
11114;BME280;5610;52.154;9.198;2024-02-23T00:56:34;97729.97;;;9.13;99.87
11114;BME280;5610;52.154;9.198;2024-02-23T00:59:20;97747.00;;;9.28;100.00
11114;BME280;5610;52.154;9.198;2024-02-23T01:02:05;97738.94;;;9.12;100.00
11114;BME280;5610;52.154;9.198;2024-02-23T01:04:50;97734.56;;;9.02;100.00
11114;BME280;5610;52.154;9.198;2024-02-23T01:07:41;97751.38;;;9.11;100.00
11114;BME280;5610;52.154;9.198;2024-02-23T01:10:27;97774.41;;;9.02;100.00
11114;BME280;5610;52.154;9.198;2024-02-23T01:13:12;97775.28;;;9.11;100.00
11114;BME280;5610;52.154;9.198;2024-02-23T01:15:57;97802.84;;;8.92;100.00
11114;BME280;5610;52.154;9.198;2024-02-23T01:18:42;97827.00;;;8.81;100.00
11114;BME280;5610;52.154;9.198;2024-02-23T01:21:28;97835.81;;;8.36;100.00
11114;BME280;5610;52.154;9.198;2024-02-23T01:24:15;97848.91;;;8.38;100.00
11114;BME280;5610;52.154;9.198;2024-02-23T01:27:01;97885.91;;;8.12;100.00
11114;BME280;5610;52.154;9.198;2024-02-23T01:29:46;97873.03;;;7.80;100.00
11114;BME280;5610;52.154;9.198;2024-02-23T01:32:32;97907.22;;;7.73;100.00
11114;BME280;5610;52.154;9.198;2024-02-23T01:35:17;97922.31;;;7.53;100.00
11114;BME280;5610;52.154;9.198;2024-02-23T01:38:02;97910.44;;;7.67;100.00
11114;BME280;5610;52.154;9.198;2024-02-23T01:40:48;97925.69;;;7.46;100.00
11114;BME280;5610;52.154;9.198;2024-02-23T01:43:34;97942.81;;;7.32;100.00
11114;BME280;5610;52.154;9.198;2024-02-23T01:46:19;97945.78;;;7.19;100.00
11114;BME280;5610;52.154;9.198;2024-02-23T01:49:05;97953.03;;;7.27;100.00
11114;BME280;5610;52.154;9.198;2024-02-23T01:51:51;97958.00;;;7.39;100.00
11114;BME280;5610;52.154;9.198;2024-02-23T01:54:37;97976.16;;;7.15;100.00
11114;BME280;5610;52.154;9.198;2024-02-23T01:57:24;97997.44;;;7.04;100.00
11114;BME280;5610;52.154;9.198;2024-02-23T02:00:12;97980.72;;;7.03;100.00
11114;BME280;5610;52.154;9.198;2024-02-23T02:03:04;98003.31;;;7.07;100.00
11114;BME280;5610;52.154;9.198;2024-02-23T02:05:50;97999.63;;;6.89;100.00
11114;BME280;5610;52.154;9.198;2024-02-23T02:08:36;98018.13;;;6.70;100.00
11114;BME280;5610;52.154;9.198;2024-02-23T02:11:21;98033.94;;;6.60;100.00
11114;BME280;5610;52.154;9.198;2024-02-23T02:14:08;98028.72;;;6.79;100.00
11114;BME280;5610;52.154;9.198;2024-02-23T02:16:54;98022.63;;;6.88;100.00
11114;BME280;5610;52.154;9.198;2024-02-23T02:19:45;98042.81;;;6.89;100.00
11114;BME280;5610;52.154;9.198;2024-02-23T02:22:32;98035.06;;;6.98;100.00
11114;BME280;5610;52.154;9.198;2024-02-23T02:25:17;98054.66;;;6.85;100.00
11114;BME280;5610;52.154;9.198;2024-02-23T02:28:06;98060.13;;;6.94;100.00
11114;BME280;5610;52.154;9.198;2024-02-23T02:30:52;98060.13;;;6.94;100.00
11114;BME280;5610;52.154;9.198;2024-02-23T02:33:39;98059.44;;;6.92;100.00
11114;BME280;5610;52.154;9.198;2024-02-23T02:36:25;98076.75;;;7.15;100.00
11114;BME280;5610;52.154;9.198;2024-02-23T02:39:10;98053.91;;;7.24;100.00
11114;BME280;5610;52.154;9.198;2024-02-23T02:41:57;98090.59;;;6.88;100.00
11114;BME280;5610;52.154;9.198;2024-02-23T02:44:42;98075.22;;;7.12;100.00
11114;BME280;5610;52.154;9.198;2024-02-23T02:47:29;98088.19;;;7.15;100.00
11114;BME280;5610;52.154;9.198;2024-02-23T02:50:15;98084.84;;;7.23;100.00
11114;BME280;5610;52.154;9.198;2024-02-23T02:53:00;98090.44;;;7.20;100.00
11114;BME280;5610;52.154;9.198;2024-02-23T02:55:45;98092.56;;;7.26;100.00
11114;BME280;5610;52.154;9.198;2024-02-23T02:58:30;98104.28;;;7.43;100.00
11114;BME280;5610;52.154;9.198;2024-02-23T03:01:15;98115.41;;;7.27;100.00
11114;BME280;5610;52.154;9.198;2024-02-23T03:04:02;98110.50;;;7.23;100.00
11114;BME280;5610;52.154;9.198;2024-02-23T03:06:47;98124.34;;;7.26;100.00
11114;BME280;5610;52.154;9.198;2024-02-23T03:09:32;98124.59;;;7.33;100.00
11114;BME280;5610;52.154;9.198;2024-02-23T03:12:17;98123.72;;;7.13;100.00
11114;BME280;5610;52.154;9.198;2024-02-23T03:15:05;98119.19;;;7.34;100.00
11114;BME280;5610;52.154;9.198;2024-02-23T03:17:51;98130.56;;;7.25;100.00
11114;BME280;5610;52.154;9.198;2024-02-23T03:20:39;98129.50;;;7.28;100.00
11114;BME280;5610;52.154;9.198;2024-02-23T03:23:25;98131.69;;;7.23;100.00
11114;BME280;5610;52.154;9.198;2024-02-23T03:26:10;98132.66;;;7.12;100.00
11114;BME280;5610;52.154;9.198;2024-02-23T03:28:54;98138.81;;;7.32;100.00
11114;BME280;5610;52.154;9.198;2024-02-23T03:31:40;98141.81;;;7.08;100.00
11114;BME280;5610;52.154;9.198;2024-02-23T03:34:25;98137.53;;;7.16;100.00
11114;BME280;5610;52.154;9.198;2024-02-23T03:37:11;98147.81;;;7.10;100.00
11114;BME280;5610;52.154;9.198;2024-02-23T03:39:57;98154.19;;;7.38;100.00
11114;BME280;5610;52.154;9.198;2024-02-23T03:42:44;98150.53;;;7.29;100.00
11114;BME280;5610;52.154;9.198;2024-02-23T03:45:30;98150.44;;;7.40;100.00
11114;BME280;5610;52.154;9.198;2024-02-23T03:48:16;98176.38;;;7.47;100.00
11114;BME280;5610;52.154;9.198;2024-02-23T03:51:03;98157.66;;;7.29;100.00
11114;BME280;5610;52.154;9.198;2024-02-23T03:53:49;98188.75;;;7.36;100.00
11114;BME280;5610;52.154;9.198;2024-02-23T03:56:38;98193.41;;;7.13;100.00
11114;BME280;5610;52.154;9.198;2024-02-23T03:59:25;98183.84;;;7.32;100.00
11114;BME280;5610;52.154;9.198;2024-02-23T04:02:12;98180.84;;;7.06;100.00
11114;BME280;5610;52.154;9.198;2024-02-23T04:04:57;98183.97;;;7.21;100.00
11114;BME280;5610;52.154;9.198;2024-02-23T04:07:42;98179.19;;;7.14;100.00
11114;BME280;5610;52.154;9.198;2024-02-23T04:10:29;98180.19;;;7.23;100.00
11114;BME280;5610;52.154;9.198;2024-02-23T04:13:14;98179.22;;;7.24;100.00
11114;BME280;5610;52.154;9.198;2024-02-23T04:16:01;98171.03;;;7.27;100.00
11114;BME280;5610;52.154;9.198;2024-02-23T04:18:47;98181.47;;;7.29;100.00
11114;BME280;5610;52.154;9.198;2024-02-23T04:21:32;98179.28;;;7.43;100.00
11114;BME280;5610;52.154;9.198;2024-02-23T04:24:17;98190.88;;;7.42;100.00
11114;BME280;5610;52.154;9.198;2024-02-23T04:27:04;98194.72;;;7.29;100.00
11114;BME280;5610;52.154;9.198;2024-02-23T04:29:49;98202.31;;;7.12;100.00
11114;BME280;5610;52.154;9.198;2024-02-23T04:32:34;98215.34;;;7.04;100.00
11114;BME280;5610;52.154;9.198;2024-02-23T04:35:19;98205.88;;;7.02;100.00
11114;BME280;5610;52.154;9.198;2024-02-23T04:38:04;98222.53;;;7.13;100.00
11114;BME280;5610;52.154;9.198;2024-02-23T04:40:49;98209.03;;;7.16;100.00
11114;BME280;5610;52.154;9.198;2024-02-23T04:43:36;98200.38;;;7.14;100.00
11114;BME280;5610;52.154;9.198;2024-02-23T04:46:22;98197.88;;;7.13;100.00
11114;BME280;5610;52.154;9.198;2024-02-23T04:49:07;98218.66;;;6.97;100.00
11114;BME280;5610;52.154;9.198;2024-02-23T04:51:52;98229.97;;;6.99;100.00
11114;BME280;5610;52.154;9.198;2024-02-23T04:54:38;98232.63;;;6.99;100.00
11114;BME280;5610;52.154;9.198;2024-02-23T04:57:24;98228.75;;;7.03;100.00
11114;BME280;5610;52.154;9.198;2024-02-23T05:00:12;98224.56;;;7.00;100.00
11114;BME280;5610;52.154;9.198;2024-02-23T05:02:57;98235.66;;;6.94;100.00
11114;BME280;5610;52.154;9.198;2024-02-23T05:05:42;98238.75;;;6.99;100.00
11114;BME280;5610;52.154;9.198;2024-02-23T05:08:29;98250.88;;;7.02;100.00
11114;BME280;5610;52.154;9.198;2024-02-23T05:11:14;98244.47;;;7.04;100.00
11114;BME280;5610;52.154;9.198;2024-02-23T05:14:00;98266.47;;;7.26;100.00
11114;BME280;5610;52.154;9.198;2024-02-23T05:16:47;98264.50;;;7.18;100.00
11114;BME280;5610;52.154;9.198;2024-02-23T05:19:33;98258.63;;;7.14;100.00
11114;BME280;5610;52.154;9.198;2024-02-23T05:22:19;98268.53;;;7.12;100.00
11114;BME280;5610;52.154;9.198;2024-02-23T05:25:05;98280.59;;;7.26;100.00
11114;BME280;5610;52.154;9.198;2024-02-23T05:27:51;98279.13;;;7.43;100.00
11114;BME280;5610;52.154;9.198;2024-02-23T05:30:36;98274.56;;;7.24;100.00
11114;BME280;5610;52.154;9.198;2024-02-23T05:33:23;98280.28;;;7.20;100.00
11114;BME280;5610;52.154;9.198;2024-02-23T05:36:08;98275.50;;;7.13;100.00
11114;BME280;5610;52.154;9.198;2024-02-23T05:38:54;98319.44;;;7.26;100.00
11114;BME280;5610;52.154;9.198;2024-02-23T05:41:39;98287.09;;;7.22;100.00
11114;BME280;5610;52.154;9.198;2024-02-23T05:44:25;98290.22;;;7.27;100.00
11114;BME280;5610;52.154;9.198;2024-02-23T05:47:12;98282.78;;;7.21;100.00
11114;BME280;5610;52.154;9.198;2024-02-23T05:50:01;98315.78;;;7.17;100.00
11114;BME280;5610;52.154;9.198;2024-02-23T05:52:46;98316.28;;;7.32;100.00
11114;BME280;5610;52.154;9.198;2024-02-23T05:55:31;98305.63;;;7.22;100.00
11114;BME280;5610;52.154;9.198;2024-02-23T05:58:18;98311.81;;;7.32;100.00
11114;BME280;5610;52.154;9.198;2024-02-23T06:01:05;98308.41;;;7.41;100.00
11114;BME280;5610;52.154;9.198;2024-02-23T06:03:50;98322.22;;;7.24;100.00
11114;BME280;5610;52.154;9.198;2024-02-23T06:06:41;98317.75;;;7.46;100.00
11114;BME280;5610;52.154;9.198;2024-02-23T06:09:26;98321.06;;;7.38;100.00
11114;BME280;5610;52.154;9.198;2024-02-23T06:12:11;98320.09;;;7.39;100.00
11114;BME280;5610;52.154;9.198;2024-02-23T06:14:56;98322.69;;;7.29;100.00
11114;BME280;5610;52.154;9.198;2024-02-23T06:17:42;98333.97;;;7.52;100.00
11114;BME280;5610;52.154;9.198;2024-02-23T06:20:29;98330.03;;;7.47;100.00
11114;BME280;5610;52.154;9.198;2024-02-23T06:23:17;98340.84;;;7.55;100.00
11114;BME280;5610;52.154;9.198;2024-02-23T06:26:04;98346.16;;;7.64;100.00
11114;BME280;5610;52.154;9.198;2024-02-23T06:28:50;98346.09;;;7.76;100.00
11114;BME280;5610;52.154;9.198;2024-02-23T06:31:36;98353.84;;;7.67;100.00
11114;BME280;5610;52.154;9.198;2024-02-23T06:34:22;98349.84;;;7.73;100.00
11114;BME280;5610;52.154;9.198;2024-02-23T06:37:11;98350.94;;;7.70;100.00
11114;BME280;5610;52.154;9.198;2024-02-23T06:39:58;98350.00;;;7.51;100.00
11114;BME280;5610;52.154;9.198;2024-02-23T06:42:44;98351.34;;;7.66;100.00
11114;BME280;5610;52.154;9.198;2024-02-23T06:45:30;98355.50;;;7.38;100.00
11114;BME280;5610;52.154;9.198;2024-02-23T06:48:15;98348.53;;;7.37;100.00
11114;BME280;5610;52.154;9.198;2024-02-23T06:51:00;98358.88;;;7.19;100.00
11114;BME280;5610;52.154;9.198;2024-02-23T06:53:46;98352.72;;;7.39;100.00
11114;BME280;5610;52.154;9.198;2024-02-23T06:56:32;98352.34;;;7.44;100.00
11114;BME280;5610;52.154;9.198;2024-02-23T06:59:17;98361.94;;;7.66;100.00
11114;BME280;5610;52.154;9.198;2024-02-23T07:02:03;98352.84;;;7.59;100.00
11114;BME280;5610;52.154;9.198;2024-02-23T07:04:48;98353.19;;;7.75;100.00
11114;BME280;5610;52.154;9.198;2024-02-23T07:07:34;98379.56;;;7.77;100.00
11114;BME280;5610;52.154;9.198;2024-02-23T07:10:20;98373.88;;;7.81;100.00
11114;BME280;5610;52.154;9.198;2024-02-23T07:13:08;98387.72;;;7.85;100.00
11114;BME280;5610;52.154;9.198;2024-02-23T07:15:53;98395.75;;;8.04;100.00
11114;BME280;5610;52.154;9.198;2024-02-23T07:18:40;98386.53;;;8.08;100.00
11114;BME280;5610;52.154;9.198;2024-02-23T07:21:25;98376.69;;;8.20;100.00
11114;BME280;5610;52.154;9.198;2024-02-23T07:24:10;98398.94;;;7.98;100.00
11114;BME280;5610;52.154;9.198;2024-02-23T07:26:55;98386.06;;;7.63;100.00
11114;BME280;5610;52.154;9.198;2024-02-23T07:29:42;98390.84;;;7.48;100.00
11114;BME280;5610;52.154;9.198;2024-02-23T07:32:28;98384.50;;;7.39;100.00
11114;BME280;5610;52.154;9.198;2024-02-23T07:35:13;98383.22;;;7.55;100.00
11114;BME280;5610;52.154;9.198;2024-02-23T07:38:01;98391.50;;;7.40;100.00
11114;BME280;5610;52.154;9.198;2024-02-23T07:40:46;98412.88;;;7.49;100.00
11114;BME280;5610;52.154;9.198;2024-02-23T07:43:32;98418.31;;;7.47;100.00
11114;BME280;5610;52.154;9.198;2024-02-23T07:46:19;98433.25;;;7.48;100.00
11114;BME280;5610;52.154;9.198;2024-02-23T07:49:06;98441.31;;;7.67;100.00
11114;BME280;5610;52.154;9.198;2024-02-23T07:51:53;98437.47;;;7.81;100.00
11114;BME280;5610;52.154;9.198;2024-02-23T07:54:39;98431.59;;;7.98;100.00
11114;BME280;5610;52.154;9.198;2024-02-23T07:57:24;98443.75;;;8.01;100.00
11114;BME280;5610;52.154;9.198;2024-02-23T08:00:10;98447.44;;;7.89;100.00
11114;BME280;5610;52.154;9.198;2024-02-23T08:03:00;98453.72;;;7.88;100.00
11114;BME280;5610;52.154;9.198;2024-02-23T08:05:45;98456.03;;;7.81;100.00
11114;BME280;5610;52.154;9.198;2024-02-23T08:08:30;98465.63;;;7.72;100.00
11114;BME280;5610;52.154;9.198;2024-02-23T08:11:18;98461.44;;;7.70;100.00
11114;BME280;5610;52.154;9.198;2024-02-23T08:14:03;98465.47;;;7.74;100.00
11114;BME280;5610;52.154;9.198;2024-02-23T08:16:49;98474.22;;;7.65;100.00
11114;BME280;5610;52.154;9.198;2024-02-23T08:19:35;98476.72;;;7.87;100.00
11114;BME280;5610;52.154;9.198;2024-02-23T08:22:20;98471.56;;;7.86;100.00
11114;BME280;5610;52.154;9.198;2024-02-23T08:25:08;98467.09;;;7.86;100.00
11114;BME280;5610;52.154;9.198;2024-02-23T08:27:54;98478.41;;;7.88;100.00
11114;BME280;5610;52.154;9.198;2024-02-23T08:30:40;98479.66;;;7.84;100.00
11114;BME280;5610;52.154;9.198;2024-02-23T08:33:25;98479.56;;;7.95;100.00
11114;BME280;5610;52.154;9.198;2024-02-23T08:36:11;98484.13;;;8.35;96.87
11114;BME280;5610;52.154;9.198;2024-02-23T08:38:56;98489.41;;;8.66;90.57
11114;BME280;5610;52.154;9.198;2024-02-23T08:41:41;98479.41;;;8.79;89.73
11114;BME280;5610;52.154;9.198;2024-02-23T08:44:26;98479.75;;;8.95;85.62
11114;BME280;5610;52.154;9.198;2024-02-23T08:47:12;98487.41;;;9.08;84.68
11114;BME280;5610;52.154;9.198;2024-02-23T08:49:58;98489.16;;;8.69;84.20
11114;BME280;5610;52.154;9.198;2024-02-23T08:52:47;98477.72;;;8.38;87.27
11114;BME280;5610;52.154;9.198;2024-02-23T08:55:32;98494.00;;;8.54;88.98
11114;BME280;5610;52.154;9.198;2024-02-23T08:58:18;98485.75;;;8.47;90.02
11114;BME280;5610;52.154;9.198;2024-02-23T09:01:03;98500.00;;;8.56;88.03
11114;BME280;5610;52.154;9.198;2024-02-23T09:03:49;98494.88;;;8.64;87.06
11114;BME280;5610;52.154;9.198;2024-02-23T09:06:34;98493.34;;;8.62;87.66
11114;BME280;5610;52.154;9.198;2024-02-23T09:09:21;98493.22;;;8.73;85.87
11114;BME280;5610;52.154;9.198;2024-02-23T09:12:07;98503.22;;;8.60;84.22
11114;BME280;5610;52.154;9.198;2024-02-23T09:14:54;98522.72;;;8.39;86.36
11114;BME280;5610;52.154;9.198;2024-02-23T09:17:40;98532.53;;;8.48;86.89
11114;BME280;5610;52.154;9.198;2024-02-23T09:20:25;98510.56;;;8.77;88.95
11114;BME280;5610;52.154;9.198;2024-02-23T09:23:10;98512.84;;;9.01;87.46
11114;BME280;5610;52.154;9.198;2024-02-23T09:25:59;98518.59;;;9.16;86.86
11114;BME280;5610;52.154;9.198;2024-02-23T09:28:44;98523.81;;;9.17;83.13
11114;BME280;5610;52.154;9.198;2024-02-23T09:31:29;98512.78;;;9.31;83.40
11114;BME280;5610;52.154;9.198;2024-02-23T09:34:15;98533.47;;;9.28;80.67
11114;BME280;5610;52.154;9.198;2024-02-23T09:37:01;98549.78;;;9.04;83.19
11114;BME280;5610;52.154;9.198;2024-02-23T09:39:46;98540.00;;;9.04;83.69
11114;BME280;5610;52.154;9.198;2024-02-23T09:42:34;98537.34;;;9.14;84.53
11114;BME280;5610;52.154;9.198;2024-02-23T09:45:21;98536.25;;;9.17;81.40
11114;BME280;5610;52.154;9.198;2024-02-23T09:48:07;98528.16;;;9.18;83.33
11114;BME280;5610;52.154;9.198;2024-02-23T09:50:55;98530.38;;;9.13;81.26
11114;BME280;5610;52.154;9.198;2024-02-23T09:53:42;98535.13;;;9.10;82.60
11114;BME280;5610;52.154;9.198;2024-02-23T09:56:28;98523.22;;;9.14;81.56
11114;BME280;5610;52.154;9.198;2024-02-23T09:59:14;98537.91;;;9.08;87.15
11114;BME280;5610;52.154;9.198;2024-02-23T10:02:00;98542.13;;;9.11;87.18
11114;BME280;5610;52.154;9.198;2024-02-23T10:04:48;98540.69;;;8.97;85.63
11114;BME280;5610;52.154;9.198;2024-02-23T10:07:36;98548.81;;;9.15;87.66
11114;BME280;5610;52.154;9.198;2024-02-23T10:10:24;98554.78;;;8.97;84.76
11114;BME280;5610;52.154;9.198;2024-02-23T10:13:10;98549.16;;;9.31;85.16
11114;BME280;5610;52.154;9.198;2024-02-23T10:15:57;98531.63;;;9.19;86.33
11114;BME280;5610;52.154;9.198;2024-02-23T10:18:42;98543.13;;;9.58;84.73
11114;BME280;5610;52.154;9.198;2024-02-23T10:21:27;98539.25;;;9.52;83.54
11114;BME280;5610;52.154;9.198;2024-02-23T10:24:13;98556.44;;;9.68;84.87
11114;BME280;5610;52.154;9.198;2024-02-23T10:27:00;98547.34;;;9.60;83.43
11114;BME280;5610;52.154;9.198;2024-02-23T10:29:49;98547.09;;;9.73;86.63
11114;BME280;5610;52.154;9.198;2024-02-23T10:32:38;98553.47;;;9.51;82.83
11114;BME280;5610;52.154;9.198;2024-02-23T10:35:25;98553.09;;;9.75;86.64
11114;BME280;5610;52.154;9.198;2024-02-23T10:38:11;98544.25;;;9.84;86.34
11114;BME280;5610;52.154;9.198;2024-02-23T10:40:58;98553.66;;;9.59;82.30
11114;BME280;5610;52.154;9.198;2024-02-23T10:43:44;98558.53;;;9.54;86.66
11114;BME280;5610;52.154;9.198;2024-02-23T10:46:32;98549.03;;;9.61;85.77
11114;BME280;5610;52.154;9.198;2024-02-23T10:49:23;98547.50;;;9.69;86.68
11114;BME280;5610;52.154;9.198;2024-02-23T10:52:11;98554.47;;;9.31;86.58
11114;BME280;5610;52.154;9.198;2024-02-23T10:55:00;98552.66;;;9.51;85.09
11114;BME280;5610;52.154;9.198;2024-02-23T10:57:50;98544.13;;;9.38;87.83
11114;BME280;5610;52.154;9.198;2024-02-23T11:00:37;98544.53;;;9.33;85.41
11114;BME280;5610;52.154;9.198;2024-02-23T11:03:23;98549.16;;;9.50;85.49
11114;BME280;5610;52.154;9.198;2024-02-23T11:06:10;98548.63;;;9.66;84.69
11114;BME280;5610;52.154;9.198;2024-02-23T11:09:04;98543.28;;;9.76;79.29
11114;BME280;5610;52.154;9.198;2024-02-23T11:11:53;98528.31;;;9.75;78.63
11114;BME280;5610;52.154;9.198;2024-02-23T11:14:38;98537.81;;;9.77;76.02
11114;BME280;5610;52.154;9.198;2024-02-23T11:17:26;98526.06;;;9.70;76.71
11114;BME280;5610;52.154;9.198;2024-02-23T11:20:14;98519.72;;;10.00;74.13
11114;BME280;5610;52.154;9.198;2024-02-23T11:23:12;98512.84;;;10.17;73.02
11114;BME280;5610;52.154;9.198;2024-02-23T11:25:59;98517.03;;;10.39;69.30
11114;BME280;5610;52.154;9.198;2024-02-23T11:28:49;98517.19;;;10.18;71.11
11114;BME280;5610;52.154;9.198;2024-02-23T11:31:44;98525.63;;;10.23;69.38
11114;BME280;5610;52.154;9.198;2024-02-23T11:34:30;98507.69;;;10.15;69.03
11114;BME280;5610;52.154;9.198;2024-02-23T11:37:18;98513.06;;;10.53;66.40
11114;BME280;5610;52.154;9.198;2024-02-23T11:40:07;98513.59;;;10.84;65.83
11114;BME280;5610;52.154;9.198;2024-02-23T11:42:54;98505.69;;;10.74;64.41
11114;BME280;5610;52.154;9.198;2024-02-23T11:45:40;98511.25;;;10.81;63.26
11114;BME280;5610;52.154;9.198;2024-02-23T11:48:25;98509.09;;;11.12;63.53
11114;BME280;5610;52.154;9.198;2024-02-23T11:51:10;98496.22;;;12.14;61.29
11114;BME280;5610;52.154;9.198;2024-02-23T11:53:56;98486.41;;;13.25;55.80
11114;BME280;5610;52.154;9.198;2024-02-23T11:56:43;98488.53;;;16.37;50.37
11114;BME280;5610;52.154;9.198;2024-02-23T11:59:28;98482.31;;;15.84;48.59
11114;BME280;5610;52.154;9.198;2024-02-23T12:02:14;98478.97;;;16.34;48.17
11114;BME280;5610;52.154;9.198;2024-02-23T12:04:59;98489.13;;;15.41;50.23
11114;BME280;5610;52.154;9.198;2024-02-23T12:07:44;98479.66;;;15.53;50.57
11114;BME280;5610;52.154;9.198;2024-02-23T12:10:30;98483.03;;;14.29;51.17
11114;BME280;5610;52.154;9.198;2024-02-23T12:13:16;98484.91;;;14.84;51.04
11114;BME280;5610;52.154;9.198;2024-02-23T12:16:02;98478.53;;;13.32;52.91
11114;BME280;5610;52.154;9.198;2024-02-23T12:18:52;98492.47;;;13.01;55.09
11114;BME280;5610;52.154;9.198;2024-02-23T12:21:38;98479.81;;;14.66;52.03
11114;BME280;5610;52.154;9.198;2024-02-23T12:24:25;98491.59;;;13.51;53.20
11114;BME280;5610;52.154;9.198;2024-02-23T12:27:16;98502.50;;;12.99;53.69
11114;BME280;5610;52.154;9.198;2024-02-23T12:30:04;98491.84;;;12.65;56.75
11114;BME280;5610;52.154;9.198;2024-02-23T12:32:50;98491.25;;;11.93;59.50
11114;BME280;5610;52.154;9.198;2024-02-23T12:35:36;98487.88;;;11.55;59.60
11114;BME280;5610;52.154;9.198;2024-02-23T12:38:21;98514.88;;;11.35;60.29
11114;BME280;5610;52.154;9.198;2024-02-23T12:41:06;98519.16;;;11.00;62.82
11114;BME280;5610;52.154;9.198;2024-02-23T12:43:52;98512.44;;;10.96;61.88
11114;BME280;5610;52.154;9.198;2024-02-23T12:46:39;98510.94;;;11.11;62.35
11114;BME280;5610;52.154;9.198;2024-02-23T12:49:24;98509.50;;;11.17;63.46
11114;BME280;5610;52.154;9.198;2024-02-23T12:52:09;98504.19;;;10.89;65.15
11114;BME280;5610;52.154;9.198;2024-02-23T12:54:55;98508.13;;;10.85;65.79
11114;BME280;5610;52.154;9.198;2024-02-23T12:57:40;98516.22;;;10.66;64.69
11114;BME280;5610;52.154;9.198;2024-02-23T13:00:25;98514.72;;;10.54;66.81
11114;BME280;5610;52.154;9.198;2024-02-23T13:03:12;98517.34;;;10.91;67.95
11114;BME280;5610;52.154;9.198;2024-02-23T13:05:57;98510.50;;;10.88;62.46
11114;BME280;5610;52.154;9.198;2024-02-23T13:08:43;98531.09;;;10.96;62.55
11114;BME280;5610;52.154;9.198;2024-02-23T13:11:28;98522.78;;;10.99;59.14
11114;BME280;5610;52.154;9.198;2024-02-23T13:14:13;98513.19;;;11.06;59.74
11114;BME280;5610;52.154;9.198;2024-02-23T13:16:59;98515.50;;;11.01;61.96
11114;BME280;5610;52.154;9.198;2024-02-23T13:19:46;98519.25;;;11.08;61.19
11114;BME280;5610;52.154;9.198;2024-02-23T13:22:31;98526.31;;;10.99;60.30
11114;BME280;5610;52.154;9.198;2024-02-23T13:25:16;98521.50;;;11.03;59.49
11114;BME280;5610;52.154;9.198;2024-02-23T13:28:02;98529.16;;;10.88;59.71
11114;BME280;5610;52.154;9.198;2024-02-23T13:30:48;98525.69;;;10.78;60.89
11114;BME280;5610;52.154;9.198;2024-02-23T13:33:33;98521.06;;;10.53;61.87
11114;BME280;5610;52.154;9.198;2024-02-23T13:36:20;98521.00;;;10.62;62.24
11114;BME280;5610;52.154;9.198;2024-02-23T13:39:05;98538.84;;;10.42;62.42
11114;BME280;5610;52.154;9.198;2024-02-23T13:41:50;98531.88;;;10.41;61.60
11114;BME280;5610;52.154;9.198;2024-02-23T13:44:36;98531.75;;;10.43;61.78
11114;BME280;5610;52.154;9.198;2024-02-23T13:47:21;98528.41;;;10.31;62.11
11114;BME280;5610;52.154;9.198;2024-02-23T13:50:06;98525.75;;;10.31;62.11
11114;BME280;5610;52.154;9.198;2024-02-23T13:52:53;98543.09;;;10.35;61.79
11114;BME280;5610;52.154;9.198;2024-02-23T13:55:39;98553.31;;;10.40;61.43
11114;BME280;5610;52.154;9.198;2024-02-23T13:58:26;98554.88;;;10.80;60.76
11114;BME280;5610;52.154;9.198;2024-02-23T14:01:11;98541.13;;;11.30;59.12
11114;BME280;5610;52.154;9.198;2024-02-23T14:03:57;98538.88;;;11.35;58.71
11114;BME280;5610;52.154;9.198;2024-02-23T14:06:42;98552.50;;;11.04;60.08
11114;BME280;5610;52.154;9.198;2024-02-23T14:09:29;98551.00;;;10.92;60.56
11114;BME280;5610;52.154;9.198;2024-02-23T14:12:14;98530.63;;;10.73;60.19
11114;BME280;5610;52.154;9.198;2024-02-23T14:15:00;98544.84;;;10.54;60.07
11114;BME280;5610;52.154;9.198;2024-02-23T14:17:45;98554.06;;;10.69;61.43
11114;BME280;5610;52.154;9.198;2024-02-23T14:20:30;98557.34;;;10.54;60.66
11114;BME280;5610;52.154;9.198;2024-02-23T14:23:15;98557.91;;;10.57;61.29
11114;BME280;5610;52.154;9.198;2024-02-23T14:26:02;98548.13;;;10.38;61.76
11114;BME280;5610;52.154;9.198;2024-02-23T14:28:47;98549.19;;;10.55;62.97
11114;BME280;5610;52.154;9.198;2024-02-23T14:31:33;98538.53;;;10.55;62.96
11114;BME280;5610;52.154;9.198;2024-02-23T14:34:19;98543.69;;;10.29;61.68
11114;BME280;5610;52.154;9.198;2024-02-23T14:37:07;98532.00;;;10.40;62.41
11114;BME280;5610;52.154;9.198;2024-02-23T14:39:52;98541.94;;;10.48;62.74
11114;BME280;5610;52.154;9.198;2024-02-23T14:42:39;98540.53;;;10.53;62.96
11114;BME280;5610;52.154;9.198;2024-02-23T14:45:25;98550.75;;;10.48;62.64
11114;BME280;5610;52.154;9.198;2024-02-23T14:48:12;98544.06;;;10.44;64.27
11114;BME280;5610;52.154;9.198;2024-02-23T14:50:57;98549.09;;;10.47;61.83
11114;BME280;5610;52.154;9.198;2024-02-23T14:53:42;98551.06;;;10.45;61.82